Flight Track Log - Related Links

Times and Time Zones

All times are in EDT time to prevent confusion due to time zone crossing. See the ABX902 flight status page for this flight to view local times or setup timezone preferences in your user account.

Time Position Orientation Groundspeed Altitude Reporting Facility
EDT Latitude Longitude Course Direction KTS MPH feet Rate Location/Type
Tue 08:25:00 PM 25.1479 -80.2513 357° North  Level Estimated
Tue 08:26:00 PM 25.2656 -80.2583 357° North  Level Estimated
Tue 08:27:00 PM 25.3833 -80.2653 357° North  Level Estimated
Tue 08:27:03 PM 23.2367 -81.3981 318° Northwest 458 527 37,900  Level Miami Center
Tue 08:28:00 PM 25.5009 -80.2724 357° North  Level Estimated
Tue 08:28:03 PM 23.3756 -81.3644 13° North 469 540 37,900  Level Miami Center
Tue 08:29:00 PM 25.6186 -80.2795 357° North  Level Estimated
Tue 08:29:03 PM 23.5122 -81.3308 13° North 488 562 38,000  Level Miami Center
Tue 08:30:00 PM 25.7363 -80.2866 357° North  Level Estimated
Tue 08:30:03 PM 23.6447 -81.2992 12° North 488 562 38,000  Level Miami Center
Tue 08:31:00 PM 25.7954 -80.2901 357° North  Level Estimated
Tue 08:31:03 PM 23.7794 -81.2653 13° North 488 562 37,900  Level Miami Center
Tue 08:32:00 PM 25.7954 -80.2901 318° Northwest  Level Estimated
Tue 08:32:03 PM 23.8992 -81.2378 12° North 488 562 37,900  Level Miami Center
Tue 08:33:03 PM 24.0317 -81.2083 11° North 488 562 37,900 50 Level Miami Center
Tue 08:34:03 PM 24.1619 -81.1831 10° North 483 556 38,000 -50 Climbing Miami Center
Tue 08:35:03 PM 24.2942 -81.1603 North 477 549 37,800 -1,300 Descending Miami Center
Tue 08:36:03 PM 24.4264 -81.1375 North 472 543 35,400 -2,850 Descending Miami Center
Tue 08:37:03 PM 24.5525 -81.1075 12° North 467 537 32,100 -3,150 Descending Miami Center
Tue 08:38:03 PM 24.6847 -81.0803 11° North 467 537 29,100 -2,900 Descending Miami Center
Tue 08:39:03 PM 24.8086 -81.0569 10° North 467 537 26,300 -3,300 Descending Miami Center
Tue 08:40:03 PM 24.9325 -81.0336 10° North 457 526 22,500 -3,300 Descending Miami Center
Tue 08:41:03 PM 25.0544 -81.0058 12° North 451 519 19,700 -2,750 Descending Miami Center
Tue 08:42:03 PM 25.1700 -80.9844 10° North 431 496 17,000 -3,079 Descending Miami Center
Tue 08:42:19 PM 25.2142 -80.9789 North 421 484 15,800 -2,700 Descending Miami Center
Tue 08:43:03 PM 25.2856 -80.9631 11° North 426 490 14,300 -2,365 Descending Miami Center
Tue 08:44:03 PM 25.3969 -80.9392 11° North 420 483 11,700 -2,100 Descending Miami Center
Tue 08:45:03 PM 25.4850 -80.9214 10° North 371 427 10,100 -797 Descending Miami Center
Tue 08:46:11 PM 25.5519 -80.8431 47° Northeast 296 341 10,000 -450 Descending Miami Center
Tue 08:47:03 PM 25.5892 -80.7844 55° Northeast 281 323 9,200 -1,233 Descending Miami Center
Tue 08:47:24 PM 25.6044 -80.7597 56° Northeast 289 333 8,500 -1,800 Descending Miami Center
Tue 08:48:03 PM 25.6328 -80.7144 55° Northeast 281 323 7,400 -1,791 Descending Miami Center
Tue 08:48:31 PM 25.6544 -80.6761 58° Northeast 276 318 6,500 -1,800 Descending Miami Center
Tue 08:49:03 PM 25.6786 -80.6375 55° Northeast 275 316 5,600 -1,500 Descending Miami Center
Tue 08:50:03 PM 25.7197 -80.5767 53° Northeast 270 311 4,200 -1,150 Descending Miami Center
Tue 08:51:03 PM 25.7611 -80.5086 56° Northeast 256 295 3,300 -900 Descending Miami Center
Tue 08:52:03 PM 25.7833 -80.4564 65° Northeast 218 251 2,400 -896 Descending Miami Center
Tue 08:53:17 PM 25.7828 -80.3917 91° East 169 194 1,300 -800 Descending Miami Center
Tue 08:54:18 PM 25.7817 -80.3500 92° East 112 129 600 -689 Descending Miami Center
Tue 08:56:00 PM 25.7833 -80.2833 77° East  Level FlightAware Approximate
Tue 09:03:00 PM 25.7954 -80.2901 77° East  Level Estimated

Login

Don't have an account? Register now (free) for customized features, flight alerts, and more!